createdAt,value
2022-12-18T00:00:09.863Z,44.67
2022-12-18T00:02:36.209Z,44.34
2022-12-18T00:05:03.000Z,44.67
2022-12-18T00:07:29.315Z,44.62
2022-12-18T00:09:55.975Z,44.10
2022-12-18T00:12:22.273Z,43.77
2022-12-18T00:14:49.511Z,43.40
2022-12-18T00:17:16.088Z,43.51
2022-12-18T00:19:42.443Z,43.58
2022-12-18T00:22:09.152Z,43.50
2022-12-18T00:24:35.491Z,43.66
2022-12-18T00:27:01.729Z,43.69
2022-12-18T00:29:28.080Z,43.92
2022-12-18T00:31:54.582Z,43.79
2022-12-18T00:34:20.996Z,43.89
2022-12-18T00:36:47.242Z,43.69
2022-12-18T00:39:13.516Z,43.68
2022-12-18T00:41:40.416Z,43.83
2022-12-18T00:44:07.413Z,43.76
2022-12-18T00:46:33.792Z,43.81
2022-12-18T00:49:00.140Z,43.81
2022-12-18T00:51:26.741Z,43.86
2022-12-18T00:53:53.218Z,43.80
2022-12-18T00:56:19.705Z,43.79
2022-12-18T01:01:19.837Z,43.62
2022-12-18T01:03:46.414Z,43.46
2022-12-18T01:06:13.114Z,43.48
2022-12-18T01:08:39.695Z,43.28
2022-12-18T01:11:06.231Z,43.03
2022-12-18T01:13:32.599Z,42.80
2022-12-18T01:15:59.196Z,42.91
2022-12-18T01:18:25.894Z,42.78
2022-12-18T01:20:52.459Z,42.72
2022-12-18T01:23:19.234Z,42.46
2022-12-18T01:25:45.591Z,42.45
2022-12-18T01:28:11.916Z,42.65
2022-12-18T01:30:38.640Z,42.72
2022-12-18T01:33:05.561Z,42.41
2022-12-18T01:35:31.841Z,42.48
2022-12-18T01:37:58.470Z,42.61
2022-12-18T01:40:25.196Z,42.40
2022-12-18T01:42:51.782Z,42.33
2022-12-18T01:45:18.050Z,42.38
2022-12-18T01:47:45.787Z,42.60
2022-12-18T01:50:13.221Z,42.79
2022-12-18T01:52:39.856Z,42.63
2022-12-18T01:55:06.175Z,42.74
2022-12-18T01:57:32.689Z,42.74
2022-12-18T01:59:58.981Z,42.58
2022-12-18T02:02:25.638Z,42.59
2022-12-18T02:04:52.413Z,42.76
2022-12-18T02:07:20.349Z,42.83
2022-12-18T02:09:47.717Z,42.43
2022-12-18T02:12:14.358Z,42.81
2022-12-18T02:14:40.784Z,42.37
2022-12-18T02:17:08.309Z,42.52
2022-12-18T02:19:34.963Z,42.81
2022-12-18T02:22:01.642Z,42.63
2022-12-18T02:24:28.803Z,42.85
2022-12-18T02:26:55.375Z,42.69
2022-12-18T02:29:22.004Z,42.77
2022-12-18T02:31:48.348Z,42.55
2022-12-18T02:34:15.199Z,42.58
2022-12-18T02:36:43.094Z,42.68
2022-12-18T02:39:09.531Z,42.78
2022-12-18T02:41:37.189Z,42.52
2022-12-18T02:44:03.892Z,42.73
2022-12-18T02:46:30.526Z,42.50
2022-12-18T02:48:56.895Z,42.60
2022-12-18T02:51:23.550Z,42.52
2022-12-18T02:53:49.855Z,42.54
2022-12-18T02:56:16.128Z,42.46
2022-12-18T02:58:42.690Z,42.42
2022-12-18T03:01:09.574Z,42.56
2022-12-18T03:03:37.674Z,42.48
2022-12-18T03:06:04.727Z,42.46
2022-12-18T03:08:31.771Z,42.48
2022-12-18T03:10:58.592Z,42.59
2022-12-18T03:13:25.014Z,42.58
2022-12-18T03:15:52.226Z,42.55
2022-12-18T03:18:19.476Z,42.54
2022-12-18T03:20:46.535Z,42.60
2022-12-18T03:23:13.019Z,42.40
2022-12-18T03:25:39.412Z,42.47
2022-12-18T03:28:06.265Z,42.57
2022-12-18T03:30:32.635Z,42.71
2022-12-18T03:33:00.587Z,42.51
2022-12-18T03:35:27.104Z,42.67
2022-12-18T03:37:53.961Z,42.61
2022-12-18T03:40:20.331Z,42.45
2022-12-18T03:42:47.178Z,42.67
2022-12-18T03:45:13.555Z,42.54
2022-12-18T03:47:40.243Z,42.63
2022-12-18T03:50:12.437Z,42.42
2022-12-18T03:52:39.425Z,42.50
2022-12-18T03:55:06.002Z,42.58
2022-12-18T03:57:32.911Z,42.62
2022-12-18T03:59:59.248Z,42.57
2022-12-18T04:02:26.156Z,42.49
2022-12-18T04:04:52.688Z,42.47
2022-12-18T04:07:19.755Z,42.66
2022-12-18T04:09:46.945Z,42.60
2022-12-18T04:12:13.735Z,42.55
2022-12-18T04:14:40.358Z,42.62
2022-12-18T04:17:06.816Z,42.58
2022-12-18T04:19:33.165Z,42.69
2022-12-18T04:21:59.697Z,42.66
2022-12-18T04:24:25.968Z,42.54
2022-12-18T04:26:52.476Z,42.85
2022-12-18T04:29:18.940Z,42.76
2022-12-18T04:31:45.777Z,42.65
2022-12-18T04:34:12.430Z,42.71
2022-12-18T04:36:38.848Z,42.90
2022-12-18T04:39:05.272Z,42.72
2022-12-18T04:41:32.082Z,42.72
2022-12-18T04:43:58.699Z,42.60
2022-12-18T04:46:25.088Z,42.70
2022-12-18T04:48:51.417Z,42.73
2022-12-18T04:51:22.005Z,42.65
2022-12-18T04:53:51.094Z,42.90
2022-12-18T04:56:17.355Z,42.71
2022-12-18T04:58:43.618Z,42.70
2022-12-18T05:01:09.888Z,42.84
2022-12-18T05:03:36.556Z,42.71
2022-12-18T05:06:03.069Z,42.75
2022-12-18T05:08:29.651Z,42.67
2022-12-18T05:10:55.956Z,42.68
2022-12-18T05:13:22.261Z,42.63
2022-12-18T05:15:48.677Z,42.83
2022-12-18T05:18:15.552Z,42.70
2022-12-18T05:20:41.825Z,42.75
2022-12-18T05:23:08.748Z,42.74
2022-12-18T05:25:35.739Z,42.68
2022-12-18T05:28:02.071Z,42.65
2022-12-18T05:30:28.688Z,42.82
2022-12-18T05:32:55.201Z,42.84
2022-12-18T05:35:21.888Z,42.86
2022-12-18T05:37:48.249Z,42.86
2022-12-18T05:40:14.589Z,43.07
2022-12-18T05:42:41.244Z,42.75
2022-12-18T05:45:07.701Z,42.71
2022-12-18T05:47:34.209Z,42.62
2022-12-18T05:50:00.564Z,42.94
2022-12-18T05:52:27.329Z,42.73
2022-12-18T05:54:54.131Z,42.73
2022-12-18T05:57:20.898Z,42.88
2022-12-18T05:59:47.601Z,43.07
2022-12-18T06:02:14.073Z,42.73
2022-12-18T06:04:41.158Z,42.84
2022-12-18T06:07:07.492Z,42.86
2022-12-18T06:09:34.108Z,42.84
2022-12-18T06:12:00.536Z,43.00
2022-12-18T06:14:27.205Z,42.81
2022-12-18T06:16:53.484Z,43.08
2022-12-18T06:19:20.660Z,42.86
2022-12-18T06:21:47.008Z,43.11
2022-12-18T06:24:13.466Z,42.87
2022-12-18T06:26:39.707Z,42.87
2022-12-18T06:29:06.542Z,42.86
2022-12-18T06:31:33.091Z,42.90
2022-12-18T06:33:59.886Z,42.67
2022-12-18T06:36:27.127Z,42.94
2022-12-18T06:38:53.483Z,43.00
2022-12-18T06:41:20.890Z,42.90
2022-12-18T06:43:48.132Z,42.99
2022-12-18T06:46:14.986Z,43.11
2022-12-18T06:48:41.665Z,42.99
2022-12-18T06:51:07.975Z,43.02
2022-12-18T06:53:34.574Z,43.03
2022-12-18T06:56:03.938Z,42.89
2022-12-18T06:58:35.266Z,43.04
2022-12-18T07:01:02.007Z,43.05
2022-12-18T07:03:28.715Z,42.99
2022-12-18T07:05:55.167Z,43.11
2022-12-18T07:08:21.584Z,43.08
2022-12-18T07:10:50.692Z,43.27
2022-12-18T07:13:20.760Z,43.24
2022-12-18T07:15:47.043Z,43.16
2022-12-18T07:18:14.199Z,43.20
2022-12-18T07:20:41.329Z,43.06
2022-12-18T07:23:08.265Z,43.27
2022-12-18T07:25:34.526Z,43.06
2022-12-18T07:28:01.182Z,43.20
2022-12-18T07:30:28.344Z,43.21
2022-12-18T07:32:55.088Z,43.17
2022-12-18T07:35:24.997Z,43.28
2022-12-18T07:37:51.875Z,43.23
2022-12-18T07:40:18.520Z,43.15
2022-12-18T07:42:44.857Z,43.21
2022-12-18T07:45:11.335Z,43.07
2022-12-18T07:47:38.185Z,43.20
2022-12-18T07:50:04.471Z,43.15
2022-12-18T07:52:31.017Z,43.15
2022-12-18T07:54:57.871Z,43.32
2022-12-18T07:57:49.450Z,43.21
2022-12-18T08:00:11.208Z,43.04
2022-12-18T08:02:38.052Z,43.16
2022-12-18T08:05:05.067Z,43.17
2022-12-18T08:07:33.323Z,42.98
2022-12-18T08:09:59.965Z,42.89
2022-12-18T08:12:26.430Z,42.99
2022-12-18T08:14:52.774Z,43.11
2022-12-18T08:17:19.040Z,43.09
2022-12-18T08:19:45.376Z,43.19
2022-12-18T08:24:40.888Z,43.28
2022-12-18T08:29:54.030Z,43.32
2022-12-18T08:32:20.560Z,43.50
2022-12-18T08:34:47.331Z,43.35
2022-12-18T08:37:14.063Z,43.48
2022-12-18T08:39:40.381Z,43.36
2022-12-18T08:42:10.323Z,43.31
2022-12-18T08:44:37.283Z,43.63
2022-12-18T08:47:03.798Z,43.47
2022-12-18T08:49:30.203Z,43.40
2022-12-18T08:51:57.410Z,43.51
2022-12-18T08:54:24.026Z,43.46
2022-12-18T08:56:50.873Z,43.56
2022-12-18T08:59:19.650Z,43.43
2022-12-18T09:01:46.951Z,43.69
2022-12-18T09:04:13.524Z,43.48
2022-12-18T09:06:39.978Z,43.70
2022-12-18T09:09:07.657Z,43.64
2022-12-18T09:11:34.019Z,43.57
2022-12-18T09:14:00.742Z,43.73
2022-12-18T09:16:32.038Z,43.65
2022-12-18T09:18:59.003Z,43.64
2022-12-18T09:21:25.884Z,43.58
2022-12-18T09:23:52.589Z,43.67
2022-12-18T09:26:19.946Z,43.73
2022-12-18T09:28:46.893Z,43.75
2022-12-18T09:31:13.568Z,43.67
2022-12-18T09:33:40.050Z,43.58
2022-12-18T09:36:06.347Z,43.57
2022-12-18T09:38:32.642Z,43.59
2022-12-18T09:40:58.960Z,43.69
2022-12-18T09:43:25.795Z,43.76
2022-12-18T09:45:52.124Z,43.79
2022-12-18T09:48:19.040Z,43.59
2022-12-18T09:50:45.536Z,43.69
2022-12-18T09:53:12.485Z,43.76
2022-12-18T09:55:39.062Z,43.77
2022-12-18T09:58:05.556Z,43.78
2022-12-18T10:00:33.321Z,43.90
2022-12-18T10:02:59.961Z,43.61
2022-12-18T10:05:26.871Z,43.66
2022-12-18T10:07:53.468Z,43.66
2022-12-18T10:10:19.882Z,43.66
2022-12-18T10:12:46.174Z,43.73
2022-12-18T10:15:12.788Z,43.75
2022-12-18T10:17:39.637Z,43.84
2022-12-18T10:20:05.998Z,43.88
2022-12-18T10:22:32.392Z,43.87
2022-12-18T10:24:58.740Z,44.12
2022-12-18T10:27:25.753Z,44.34
2022-12-18T10:29:53.534Z,44.16
2022-12-18T10:32:19.794Z,44.13
2022-12-18T10:34:46.700Z,44.42
2022-12-18T10:37:12.973Z,44.28
2022-12-18T10:39:39.498Z,44.53
2022-12-18T10:42:05.989Z,44.55
2022-12-18T10:44:32.352Z,44.28
2022-12-18T10:46:59.553Z,44.24
2022-12-18T10:49:25.912Z,44.11
2022-12-18T10:51:53.075Z,44.18
2022-12-18T10:54:19.574Z,44.24
2022-12-18T10:56:46.514Z,44.40
2022-12-18T11:01:52.725Z,44.20
2022-12-18T11:04:19.145Z,44.52
2022-12-18T11:06:45.466Z,44.02
2022-12-18T11:09:13.850Z,44.01
2022-12-18T11:11:42.647Z,43.87
2022-12-18T11:14:09.380Z,43.62
2022-12-18T11:21:50.722Z,43.41
2022-12-18T11:24:17.308Z,43.69
2022-12-18T11:26:45.787Z,43.75
2022-12-18T11:29:12.815Z,43.81
2022-12-18T11:31:39.708Z,43.96
2022-12-18T11:36:52.933Z,44.09
2022-12-18T11:39:19.461Z,43.75
2022-12-18T11:41:47.084Z,44.07
2022-12-18T11:44:13.842Z,43.79
2022-12-18T11:46:40.587Z,43.63
2022-12-18T11:49:07.435Z,43.68
2022-12-18T11:51:34.078Z,43.67
2022-12-18T11:54:00.641Z,43.70
2022-12-18T11:56:27.616Z,43.81
2022-12-18T11:58:54.164Z,43.84
2022-12-18T12:01:20.581Z,44.01
2022-12-18T12:03:47.971Z,44.23
2022-12-18T12:06:14.551Z,44.17
2022-12-18T12:08:41.072Z,44.06
2022-12-18T12:11:07.352Z,43.95
2022-12-18T12:13:33.723Z,44.24
2022-12-18T12:16:00.455Z,44.20
2022-12-18T12:18:27.566Z,44.36
2022-12-18T12:20:53.951Z,44.11
2022-12-18T12:23:24.698Z,44.03
2022-12-18T12:36:29.654Z,44.37
2022-12-18T12:38:56.008Z,44.38
2022-12-18T12:49:16.677Z,44.80
2022-12-18T12:51:44.367Z,44.95
2022-12-18T12:54:10.900Z,45.11
2022-12-18T12:56:37.662Z,45.35
2022-12-18T12:59:04.138Z,45.40
2022-12-18T13:01:30.966Z,45.30
2022-12-18T13:03:57.896Z,45.42
2022-12-18T13:06:24.221Z,45.54
2022-12-18T13:11:24.288Z,45.26
2022-12-18T13:13:52.060Z,45.40
2022-12-18T13:16:19.451Z,45.58
2022-12-18T13:18:46.079Z,45.45
2022-12-18T13:21:14.053Z,45.33
2022-12-18T13:23:41.417Z,45.36
2022-12-18T13:26:09.006Z,44.82
2022-12-18T13:28:35.450Z,44.71
2022-12-18T13:38:59.689Z,44.53
2022-12-18T13:41:26.291Z,44.15
2022-12-18T13:43:53.134Z,44.47
2022-12-18T13:48:54.710Z,45.54
2022-12-18T13:51:21.539Z,45.25
2022-12-18T13:53:48.203Z,45.88
2022-12-18T13:56:15.292Z,45.82
2022-12-18T13:58:43.327Z,45.75
2022-12-18T14:01:10.622Z,46.14
2022-12-18T14:03:37.576Z,46.30
2022-12-18T14:06:04.006Z,46.32
2022-12-18T14:08:30.286Z,46.27
2022-12-18T14:10:57.509Z,46.24
2022-12-18T14:13:24.052Z,46.18
2022-12-18T14:15:51.156Z,46.20
2022-12-18T14:18:17.936Z,46.15
2022-12-18T14:20:46.511Z,46.22
2022-12-18T14:23:17.841Z,46.23
2022-12-18T14:25:44.674Z,46.46
2022-12-18T14:28:11.659Z,46.37
2022-12-18T14:30:38.060Z,46.40
2022-12-18T14:33:05.062Z,46.31
2022-12-18T14:35:31.619Z,46.74
2022-12-18T14:37:58.532Z,46.56
2022-12-18T14:40:25.490Z,46.70
2022-12-18T14:42:52.333Z,46.70
2022-12-18T14:45:18.699Z,46.62
2022-12-18T14:47:45.415Z,46.58
2022-12-18T14:50:12.724Z,46.43
2022-12-18T14:52:40.390Z,46.64
2022-12-18T14:55:07.096Z,46.46
2022-12-18T14:57:33.504Z,46.68
2022-12-18T14:59:59.819Z,46.78
2022-12-18T15:02:26.375Z,46.67
2022-12-18T15:04:53.340Z,46.92
2022-12-18T15:07:19.761Z,46.74
2022-12-18T15:09:46.857Z,46.81
2022-12-18T15:14:54.887Z,46.92
2022-12-18T15:17:23.074Z,46.83
2022-12-18T15:19:51.483Z,46.84
2022-12-18T15:22:18.039Z,46.85
2022-12-18T15:24:45.058Z,46.98
2022-12-18T15:27:11.371Z,46.89
2022-12-18T15:29:37.681Z,46.93
2022-12-18T15:32:04.019Z,47.01
2022-12-18T15:34:30.894Z,46.96
2022-12-18T15:36:57.529Z,47.04
2022-12-18T15:39:23.770Z,46.79
2022-12-18T15:41:50.595Z,46.81
2022-12-18T15:46:50.393Z,46.54
2022-12-18T15:49:17.209Z,46.46
2022-12-18T15:51:43.573Z,46.00
2022-12-18T15:54:11.272Z,45.46
2022-12-18T15:56:37.627Z,45.45
2022-12-18T15:59:04.421Z,45.16
2022-12-18T16:01:31.271Z,44.32
2022-12-18T16:03:57.894Z,44.53
2022-12-18T16:06:24.477Z,44.68
2022-12-18T16:08:52.044Z,44.72
2022-12-18T16:11:18.715Z,44.76
2022-12-18T16:13:47.082Z,44.80
2022-12-18T16:16:13.843Z,44.91
2022-12-18T16:18:40.196Z,44.99
2022-12-18T16:21:06.908Z,45.05
2022-12-18T16:23:33.672Z,45.34
2022-12-18T16:26:00.477Z,45.04
2022-12-18T16:28:27.988Z,44.70
2022-12-18T16:30:54.731Z,44.83
2022-12-18T16:33:21.381Z,44.50
2022-12-18T16:35:48.686Z,44.58
2022-12-18T16:38:15.414Z,44.56
2022-12-18T16:40:41.729Z,44.42
2022-12-18T16:43:08.601Z,44.49
2022-12-18T16:45:34.985Z,44.19
2022-12-18T16:48:01.278Z,44.19
2022-12-18T16:50:27.827Z,44.24
2022-12-18T16:52:54.321Z,44.39
2022-12-18T16:55:21.002Z,44.28
2022-12-18T16:57:47.568Z,44.19
2022-12-18T17:00:13.863Z,44.21
2022-12-18T17:02:40.888Z,43.93
2022-12-18T17:05:07.710Z,43.92
2022-12-18T17:07:34.110Z,44.03
2022-12-18T17:10:01.681Z,43.93
2022-12-18T17:12:28.384Z,43.82
2022-12-18T17:14:55.295Z,43.88
2022-12-18T17:17:23.289Z,43.80
2022-12-18T17:19:50.521Z,43.95
2022-12-18T17:22:17.336Z,43.75
2022-12-18T17:24:43.726Z,43.95
2022-12-18T17:27:10.406Z,43.50
2022-12-18T17:29:38.272Z,43.83
2022-12-18T17:32:07.056Z,43.58
2022-12-18T17:34:33.373Z,43.55
2022-12-18T17:36:59.694Z,43.49
2022-12-18T17:39:26.211Z,43.61
2022-12-18T17:41:52.555Z,43.79
2022-12-18T17:44:19.047Z,43.74
2022-12-18T17:46:45.727Z,43.72
2022-12-18T17:49:12.081Z,43.95
2022-12-18T17:51:38.419Z,43.84
2022-12-18T17:54:04.894Z,43.99
2022-12-18T17:56:31.359Z,43.79
2022-12-18T17:58:58.062Z,44.00
2022-12-18T18:01:24.485Z,43.82
2022-12-18T18:03:53.563Z,43.96
2022-12-18T18:06:20.354Z,43.88
2022-12-18T18:08:46.620Z,43.87
2022-12-18T18:11:13.382Z,44.01
2022-12-18T18:13:44.941Z,44.01
2022-12-18T18:16:13.524Z,43.93
2022-12-18T18:18:40.175Z,43.90
2022-12-18T18:21:06.459Z,43.85
2022-12-18T18:23:33.211Z,43.94
2022-12-18T18:25:59.513Z,43.83
2022-12-18T18:28:25.895Z,43.82
2022-12-18T18:30:52.554Z,44.00
2022-12-18T18:33:19.120Z,43.91
2022-12-18T18:35:53.689Z,43.87
2022-12-18T18:38:21.090Z,43.83
2022-12-18T18:40:47.407Z,43.73
2022-12-18T18:43:13.688Z,43.82
2022-12-18T18:45:40.042Z,43.92
2022-12-18T18:48:08.416Z,43.82
2022-12-18T18:50:34.759Z,43.83
2022-12-18T18:53:01.084Z,43.91
2022-12-18T18:55:27.423Z,43.79
2022-12-18T18:57:53.860Z,43.68
2022-12-18T19:00:20.422Z,43.77
2022-12-18T19:02:47.759Z,43.70
2022-12-18T19:05:14.361Z,43.72
2022-12-18T19:07:41.185Z,43.67
2022-12-18T19:10:07.468Z,43.68
2022-12-18T19:12:34.013Z,43.50
2022-12-18T19:15:00.257Z,43.72
2022-12-18T19:17:30.642Z,43.57
2022-12-18T19:19:57.897Z,43.69
2022-12-18T19:22:24.227Z,43.68
2022-12-18T19:24:50.789Z,43.81
2022-12-18T19:27:17.057Z,43.67
2022-12-18T19:29:43.431Z,43.69
2022-12-18T19:32:09.842Z,43.72
2022-12-18T19:34:36.560Z,43.73
2022-12-18T19:37:04.104Z,43.64
2022-12-18T19:39:30.695Z,43.74
2022-12-18T19:41:57.580Z,43.57
2022-12-18T19:44:23.940Z,43.56
2022-12-18T19:46:50.448Z,43.66
2022-12-18T19:49:18.329Z,43.70
2022-12-18T19:51:46.163Z,43.72
2022-12-18T19:54:16.782Z,43.73
2022-12-18T19:56:44.027Z,43.55
2022-12-18T19:59:10.700Z,43.60
2022-12-18T20:01:37.296Z,43.67
2022-12-18T20:04:04.061Z,43.65
2022-12-18T20:06:31.435Z,43.80
2022-12-18T20:09:00.097Z,43.75
2022-12-18T20:11:27.643Z,43.56
2022-12-18T20:13:53.975Z,43.69
2022-12-18T20:16:20.368Z,43.71
2022-12-18T20:18:47.785Z,43.72
2022-12-18T20:21:14.893Z,43.79
2022-12-18T20:23:42.602Z,43.73
2022-12-18T20:26:09.536Z,43.76
2022-12-18T20:28:35.953Z,43.57
2022-12-18T20:31:04.396Z,43.78
2022-12-18T20:33:31.330Z,43.69
2022-12-18T20:35:57.701Z,43.52
2022-12-18T20:38:24.080Z,43.71
2022-12-18T20:40:51.808Z,43.65
2022-12-18T20:43:18.225Z,43.46
2022-12-18T20:45:44.735Z,43.66
2022-12-18T20:48:13.411Z,43.67
2022-12-18T20:50:40.109Z,43.52
2022-12-18T20:53:06.936Z,43.74
2022-12-18T20:55:33.271Z,43.70
2022-12-18T20:57:59.605Z,43.64
2022-12-18T21:00:26.107Z,43.54
2022-12-18T21:02:52.818Z,43.65
2022-12-18T21:05:19.568Z,43.77
2022-12-18T21:07:45.943Z,43.52
2022-12-18T21:10:12.482Z,43.55
2022-12-18T21:12:45.261Z,43.65
2022-12-18T21:15:28.502Z,43.66
2022-12-18T21:17:55.285Z,43.67
2022-12-18T21:20:21.994Z,43.83
2022-12-18T21:22:48.540Z,43.60
2022-12-18T21:25:14.908Z,43.61
2022-12-18T21:27:41.179Z,43.63
2022-12-18T21:30:07.436Z,43.81
2022-12-18T21:32:33.824Z,43.68
2022-12-18T21:35:00.512Z,43.84
2022-12-18T21:37:27.092Z,43.66
2022-12-18T21:39:53.727Z,43.65
2022-12-18T21:42:20.313Z,43.64
2022-12-18T21:44:47.320Z,43.61
2022-12-18T21:47:21.285Z,43.71
2022-12-18T21:49:48.975Z,43.79
2022-12-18T21:52:15.287Z,43.75
2022-12-18T21:54:41.616Z,43.77
2022-12-18T21:57:07.999Z,43.67
2022-12-18T21:59:34.453Z,43.74
2022-12-18T22:02:00.847Z,43.69
2022-12-18T22:04:27.244Z,43.70
2022-12-18T22:06:54.212Z,43.70
2022-12-18T22:09:20.849Z,43.54
2022-12-18T22:11:47.288Z,43.61
2022-12-18T22:14:13.619Z,43.63
2022-12-18T22:16:39.970Z,43.42
2022-12-18T22:19:07.684Z,43.55
2022-12-18T22:21:34.026Z,43.64
2022-12-18T22:24:00.376Z,43.63
2022-12-18T22:26:26.745Z,43.51
2022-12-18T22:28:53.265Z,43.48
2022-12-18T22:31:19.931Z,43.61
2022-12-18T22:33:46.708Z,43.48
2022-12-18T22:36:13.401Z,43.60
2022-12-18T22:38:42.660Z,43.70
2022-12-18T22:41:09.602Z,43.60
2022-12-18T22:43:36.523Z,43.52
2022-12-18T22:46:03.124Z,43.59
2022-12-18T22:48:30.076Z,43.49
2022-12-18T22:50:59.376Z,43.61
2022-12-18T22:53:26.079Z,43.50
2022-12-18T22:55:52.866Z,43.70
2022-12-18T22:58:19.759Z,43.44
2022-12-18T23:00:46.019Z,43.62
2022-12-18T23:03:12.759Z,43.46
2022-12-18T23:05:39.557Z,43.58
2022-12-18T23:08:06.505Z,43.57
2022-12-18T23:10:33.138Z,43.40
2022-12-18T23:12:59.663Z,43.51
2022-12-18T23:15:28.533Z,43.48
2022-12-18T23:17:55.028Z,43.35
2022-12-18T23:20:21.389Z,43.36
2022-12-18T23:22:47.961Z,43.37
2022-12-18T23:25:14.223Z,43.41
2022-12-18T23:27:40.548Z,43.43
2022-12-18T23:30:07.857Z,43.32
2022-12-18T23:32:34.477Z,43.24
2022-12-18T23:35:02.216Z,43.28
2022-12-18T23:37:56.889Z,43.21
2022-12-18T23:40:15.096Z,43.08
2022-12-18T23:42:41.439Z,43.22
2022-12-18T23:45:17.614Z,43.17
2022-12-18T23:47:44.834Z,43.19
2022-12-18T23:50:13.554Z,43.29
2022-12-18T23:52:40.159Z,43.29
2022-12-18T23:55:06.559Z,43.16
2022-12-18T23:57:33.055Z,43.29
2022-12-18T23:59:59.932Z,43.26
